KINL/INL METAR and TAF weather

Enter ICAO airport designator
Station Type Date Time Source
KINL METAR 2022/05/23 13:54 UTC NOAA

KINL 231354Z AUTO 21006KT 10SM CLR 12/01 A3026 RMK AO2 SLP255 T01220011


Station Type Date Time Source
KINL Decoded METAR 2022/05/23 13:54 UTC NOAA

FALLS INTERNATIONAL AIRPORT , MN, United States (KINL) 48-34N 093-24W 360M
May 23, 2022 - 09:54 AM EDT / 2022.05.23 1354 UTC
Wind: from the SSW (210 degrees) at 7 MPH (6 KT):0
Visibility: 10 mile(s):0
Sky conditions: clear
Temperature: 54.0 F (12.2 C)
Dew Point: 34.0 F (1.1 C)
Relative Humidity: 46%
Pressure (altimeter): 30.26 in. Hg (1024 hPa)
ob: KINL 231354Z AUTO 21006KT 10SM CLR 12/01 A3026 RMK AO2 SLP255 T01220011
cycle: 14

Station Type Date Time Source
KINL TAF 2022/05/23 12:28 UTC NOAA

TAF KINL 231126Z 2312/2412 VRB03KT P6SM BKN100
FM231600 23008KT P6SM SCT045 BKN090
FM231800 23008KT P6SM VCSH SCT050 BKN080
FM240300 VRB04KT P6SM BKN090
FM240600 20005KT P6SM -SHRA BKN090

Example: see airport list